TimeCDT,TemperatureF,Dew PointF,Humidity,Sea Level PressureIn,VisibilityMPH,Wind Direction,Wind SpeedMPH,Gust SpeedMPH,PrecipitationIn,Events,Conditions,WindDirDegrees,DateUTC
12:53 AM,61.0,54.0,78,30.04,10.0,Calm,Calm,-,N/A,,Clear,0,2013-05-01 05:53:00
1:53 AM,57.0,51.1,81,30.04,10.0,Calm,Calm,-,N/A,,Clear,0,2013-05-01 06:53:00
2:53 AM,55.9,52.0,87,30.04,10.0,Calm,Calm,-,N/A,,Clear,0,2013-05-01 07:53:00
3:53 AM,54.0,50.0,86,30.06,10.0,Calm,Calm,-,N/A,,Clear,0,2013-05-01 08:53:00
4:53 AM,54.0,50.0,86,30.06,10.0,Calm,Calm,-,N/A,,Clear,0,2013-05-01 09:53:00
5:53 AM,53.1,50.0,89,30.09,10.0,Calm,Calm,-,N/A,,Clear,0,2013-05-01 10:53:00
6:53 AM,57.9,53.1,84,30.11,10.0,NE,3.5,-,N/A,,Clear,40,2013-05-01 11:53:00
7:53 AM,64.0,55.9,75,30.13,10.0,Calm,Calm,-,N/A,,Clear,0,2013-05-01 12:53:00
8:53 AM,72.0,57.9,61,30.14,10.0,SSE,6.9,-,N/A,,Clear,150,2013-05-01 13:53:00
9:53 AM,73.9,57.9,57,30.14,10.0,South,9.2,-,N/A,,Clear,190,2013-05-01 14:53:00
10:53 AM,77.0,59.0,54,30.14,10.0,SE,6.9,-,N/A,,Clear,130,2013-05-01 15:53:00
11:53 AM,79.0,59.0,50,30.14,10.0,ENE,3.5,-,N/A,,Clear,70,2013-05-01 16:53:00
12:53 PM,81.0,57.9,45,30.12,10.0,Variable,3.5,-,N/A,,Clear,0,2013-05-01 17:53:00
1:53 PM,82.0,60.1,47,30.12,10.0,ENE,8.1,-,N/A,,Scattered Clouds,60,2013-05-01 18:53:00
2:53 PM,82.0,55.9,41,30.10,10.0,ENE,9.2,-,N/A,,Scattered Clouds,70,2013-05-01 19:53:00
3:53 PM,82.9,55.0,38,30.09,10.0,NE,5.8,-,N/A,,Partly Cloudy,40,2013-05-01 20:53:00
4:53 PM,81.0,59.0,47,30.09,10.0,ENE,8.1,-,N/A,,Overcast,60,2013-05-01 21:53:00
5:53 PM,80.1,60.1,50,30.09,10.0,ENE,5.8,-,N/A,,Partly Cloudy,70,2013-05-01 22:53:00
6:53 PM,77.0,59.0,54,30.08,10.0,East,3.5,-,N/A,,Clear,80,2013-05-01 23:53:00
7:53 PM,73.9,60.1,62,30.08,10.0,NE,3.5,-,N/A,,Clear,50,2013-05-02 00:53:00
8:53 PM,71.1,59.0,66,30.09,10.0,Calm,Calm,-,N/A,,Clear,0,2013-05-02 01:53:00
9:53 PM,70.0,59.0,68,30.10,10.0,Calm,Calm,-,N/A,,Partly Cloudy,0,2013-05-02 02:53:00
10:53 PM,71.1,60.1,68,30.10,10.0,Calm,Calm,-,N/A,,Overcast,0,2013-05-02 03:53:00
11:53 PM,68.0,60.1,76,30.10,10.0,Calm,Calm,-,N/A,,Mostly Cloudy,0,2013-05-02 04:53:00